To NAV CANADA Home Page Login to a new session Search on AWWS site Disclaimer Vers la page française équivalente Tips FAQ What's new on the site To the Forecasts and Observations / NOTAM section To "File a Flight Plan" website Publications and other links Update of the User's profile FIC Telephone Numbers My Weather Data Folder Route Weather Data Regional Weather Data Local Weather Data To the Forecasts and Observations / NOTAM section
Request Generated 07/17/2018 at 13:21:06 UTC . Weather information available at that time is displayed.

METAR/TAF

TORONTO/BILLY BISHOP TORONTO CITY AIRPORT/ON    (show WxCam)

METAR CYTZ 171300Z AUTO 32007KT 290V360 9SM BKN085 23/13 A2987 RMK SLP114 DENSITY ALT 1300FT=
METAR CYTZ 171200Z AUTO 31007KT 9SM SCT075 SCT086 23/14 A2986 RMK SLP111 DENSITY ALT 1200FT=
METAR CYTZ 171100Z AUTO 31008KT 9SM BKN065 OVC076 22/14 A2984 RMK SLP106 DENSITY ALT 1200FT=

TAF CYTZ 170738Z 1708/1808 32010KT P6SM BKN040 TEMPO 1708/1711 SCT040
FM171100 33010KT P6SM FEW040
BECMG 1712/1714 32012G22KT
BECMG 1722/1724 34010KT
RMK FCST BASED ON AUTO OBS. NXT FCST BY 171400Z=
Your time UTC time
Weather data provided by Environment Canada and NAV CANADA